This is the latest recevied weather packets stored in our database for station/object KO4DYK. If no packets are shown the sender has not sent any weather packets the latest 10 day(s).
| Time | Temp. | Humidity | Pressure | Rain* | Wind** | Luminosity | Snow |
|---|---|---|---|---|---|---|---|
| 1778101824 | 12.22° C | 99% | 1018.6 hPa | 0 mm | - | 74 W/m² | - |
| 1778101521 | 12.22° C | 99% | 1018.2 hPa | 1.78 mm | - | 206 W/m² | - |
| 1778101217 | 11.67° C | 99% | 1017.7 hPa | 1.78 mm | - | 229 W/m² | - |
| 1778100914 | 11.67° C | 99% | 1018.5 hPa | 1.27 mm | - | 119 W/m² | - |
| 1778100609 | 11.67° C | 99% | 1019 hPa | 3.05 mm | - | 60 W/m² | - |
| 1778100308 | 11.67° C | 99% | 1019 hPa | 3.05 mm | - | 54 W/m² | - |
| 1778100004 | 11.67° C | 99% | 1019 hPa | 3.05 mm | - | 47 W/m² | - |
| 1778099702 | 11.67° C | 99% | 1019 hPa | 1.78 mm | - | 45 W/m² | - |
| 1778099399 | 11.67° C | 99% | 1018.9 hPa | 0 mm | - | 48 W/m² | - |
| 1778099096 | 11.67° C | 99% | 1019.3 hPa | 0 mm | - | 41 W/m² | - |
| 1778098792 | 11.67° C | 99% | 1019.3 hPa | 0 mm | - | 47 W/m² | - |
| 1778098490 | 11.67° C | 99% | 1019.2 hPa | 0 mm | - | 53 W/m² | - |
| 1778098186 | 11.67° C | 99% | 1019.2 hPa | 0 mm | - | 77 W/m² | - |
| 1778097883 | 11.67° C | 99% | 1018.9 hPa | 0 mm | - | 141 W/m² | - |
| 1778097579 | 11.67° C | 99% | 1019.1 hPa | 0 mm | - | 89 W/m² | - |
| 1778097276 | 11.67° C | 99% | 1018.8 hPa | 0 mm | - | 106 W/m² | - |
| 1778096973 | 11.67° C | 99% | 1018.8 hPa | 0 mm | - | 85 W/m² | - |
| 1778096670 | 11.67° C | 99% | 1019 hPa | 0 mm | - | 75 W/m² | - |
| 1778096367 | 11.67° C | 99% | 1019.2 hPa | 0 mm | - | 77 W/m² | - |
| 1778096064 | 11.67° C | 99% | 1019.1 hPa | 0 mm | - | 107 W/m² | - |
| 1778095761 | 11.67° C | 99% | 1019.4 hPa | 0 mm | - | 112 W/m² | - |
| 1778095458 | 11.67° C | 99% | 1019.5 hPa | 0 mm | - | 58 W/m² | - |
| 1778095155 | 11.11° C | 99% | 1019.3 hPa | 0 mm | - | 62 W/m² | - |
| 1778094851 | 11.67° C | 99% | 1019.4 hPa | 0 mm | - | 62 W/m² | - |
| 1778094548 | 11.67° C | 99% | 1019.2 hPa | 0 mm | - | 58 W/m² | - |
* Rain latest hour (hover to see other rain measurements)
** Current wind speed in m/s (hover to see current wind gust speed)